Togetter/min.tを安心してお使い頂くためのガイドラインを公開しました。

福岡空港 落雷で滑走路の路面に穴が空く滑走路閉鎖

復旧の見通し立たず
5
竹 下 @Semi_R811

福岡空港国際線送迎デッキシャワー室の様子(?) pic.twitter.com/BPbjliUjms

2018-07-22 15:38:57
ざいぜんさん@あと8.0Kg @zaizen_in_tw

【速報】福岡空港大荒れと落雷により運航見合わせ pic.twitter.com/VoKzfhZgJw

2018-07-22 15:39:07
tsuka @Tsukachan26

福岡空港国際線 10秒おきくらいに近くに落雷 ちょっとコワイです(>_<) pic.twitter.com/sBPQn9MrJ5

2018-07-22 15:43:29
なそう @n_as_o

福岡空港にてスコールに遭遇 2分間で気温が7℃下がったwww pic.twitter.com/6pxljHrhVn

2018-07-22 15:48:46
skytraveler @skytraveler7

スカイマーク SKY015(羽田→福岡)は福岡空港悪天候(雷雨)の為、長崎空港にダイバート予定です。 pic.twitter.com/gdOjpRzbXo

2018-07-22 15:57:27
拡大
ケイ・チャング @KeiChang__

METAR RJFF 220700Z 30003KT 210V360 2500 R16/0600V1700D +TSRA FEW015 SCT020 BKN025 BKN040CB 27/25 Q1009 福岡空港周辺、すんげー雷雨⚡️☔️ #福岡空港 #RJFF pic.twitter.com/aC09oarZeE

2018-07-22 16:15:47
拡大
拡大
山ちゃん@三十代突入 @yamatiyan2012

大相撲中継を中断して福岡空港の滑走路閉鎖のニュース速報。 pic.twitter.com/4ff4pmKuIv

2018-07-22 17:14:59
拡大
六白金星【手洗い・うがい励行】 @SixWhiteLucifer

福岡、どんだけすごい雷だった事か! 福岡空港、落雷で滑走路が剥がれてしまうなんて⚡️💥 pic.twitter.com/ZD9n5Wf5mF

2018-07-22 17:18:55
拡大
skytraveler @skytraveler7

ジェットスター・ジャパン JJP515(成田→福岡)は福岡空港滑走路閉鎖の為、鹿児島空港にダイバート予定です。 pic.twitter.com/mjcNGR4pER

2018-07-22 17:26:08
拡大

コメント

柏木彰二 @GmailShoji 2018年7月22日
滑走路に何か落ちてると、タイヤがやられることがあるしね(コンコルドで実際にあった筈
3
Destroyer Rock @hondapoint 2018年7月22日
GmailShoji DC-10「なんのことだか知らないなぁ」
10
FX-702P @fx702p 2018年7月22日
メーデー民正座待機
0
SSKTK@甲21 @SSKTK 2018年7月22日
ピンポイント夕立?ゲリラ豪雨?みたいだな。佐賀は全く降ってない
0